Time;durP1;ratioP1;P1;durP2;ratioP2;P2;SDS_P1;SDS_P2;PMS_P1;PMS_P2;Temp;Humidity;BMP_temperature;BMP_pressure;BME280_temperature;BME280_humidity;BME280_pressure;Samples;Min_cycle;Max_cycle;Signal;HPM_P1;HPM_P2
2023/07/03 00:00:21;;;;;;;4.80;2.05;;;;;;;15.28;63.48;100939.19;5092747;28;20020;-80
2023/07/03 00:02:51;;;;;;;3.93;1.90;;;;;;;15.30;62.84;100944.34;5093159;28;20027;-80
2023/07/03 00:05:17;;;;;;;6.05;2.13;;;;;;;15.26;63.23;100946.22;5093279;28;20016;-80
2023/07/03 00:07:42;;;;;;;4.90;2.30;;;;;;;15.25;64.00;100933.22;5092069;28;20026;-81
2023/07/03 00:10:08;;;;;;;4.73;2.27;;;;;;;15.19;63.08;100931.66;5092591;28;20024;-81
2023/07/03 00:12:34;;;;;;;5.60;2.58;;;;;;;15.20;63.33;100925.50;5092986;28;20030;-81
2023/07/03 00:15:00;;;;;;;5.45;2.47;;;;;;;15.16;64.25;100923.91;5092937;28;20028;-80
2023/07/03 00:17:25;;;;;;;6.47;2.40;;;;;;;15.14;63.27;100926.53;5092854;28;20073;-80
2023/07/03 00:19:50;;;;;;;5.47;2.47;;;;;;;15.13;63.65;100922.25;5093605;28;20028;-81
2023/07/03 00:22:19;;;;;;;6.93;2.43;;;;;;;15.05;64.37;100913.78;5092601;28;20046;-81
2023/07/03 00:24:44;;;;;;;5.28;2.40;;;;;;;15.04;64.08;100906.84;5093065;28;20061;-80
2023/07/03 00:27:09;;;;;;;4.20;2.03;;;;;;;15.10;63.79;100917.13;5092943;28;20032;-81
2023/07/03 00:29:35;;;;;;;5.43;2.33;;;;;;;15.09;65.16;100925.84;5092420;28;20052;-80
2023/07/03 00:32:01;;;;;;;6.07;2.30;;;;;;;15.07;64.80;100916.38;5074458;28;20029;-80
2023/07/03 00:34:27;;;;;;;6.07;2.80;;;;;;;15.09;65.02;100922.38;5072598;28;20093;-81
2023/07/03 00:36:53;;;;;;;5.90;2.45;;;;;;;15.07;65.13;100919.81;5072019;28;20029;-80
2023/07/03 00:39:19;;;;;;;7.72;2.70;;;;;;;15.06;64.91;100923.34;5087035;28;20388;-80
2023/07/03 00:41:44;;;;;;;5.57;2.40;;;;;;;15.00;66.12;100920.06;5093084;28;20016;-80
2023/07/03 00:44:12;;;;;;;3.93;2.10;;;;;;;15.05;65.38;100931.25;5091902;28;20092;-81
2023/07/03 00:46:45;;;;;;;6.15;2.30;;;;;;;15.03;66.08;100926.03;5092803;28;20032;-81
2023/07/03 00:49:11;;;;;;;5.30;2.30;;;;;;;15.01;66.15;100924.38;5092507;28;20023;-80
2023/07/03 00:51:43;;;;;;;7.00;2.33;;;;;;;15.02;66.43;100916.53;5092051;28;20345;-81
2023/07/03 00:54:09;;;;;;;5.60;2.42;;;;;;;14.99;66.14;100919.22;5092615;28;20471;-80
2023/07/03 00:56:34;;;;;;;5.90;2.50;;;;;;;15.00;65.55;100913.09;5092945;28;20043;-80
2023/07/03 00:59:01;;;;;;;7.40;2.37;;;;;;;15.02;66.79;100919.13;5091421;28;20060;-80
2023/07/03 01:01:36;;;;;;;;;;;;;;;15.00;66.79;100914.84;5092799;28;20031;-80
2023/07/03 01:04:14;;;;;;;8.67;2.77;;;;;;;14.97;67.07;100911.41;5092303;28;19912;-80
2023/07/03 01:06:54;;;;;;;6.93;2.60;;;;;;;14.95;65.88;100909.75;5092346;28;20115;-80
2023/07/03 01:09:22;;;;;;;5.72;2.33;;;;;;;14.96;66.31;100909.75;5092503;28;20047;-81
2023/07/03 01:11:49;;;;;;;6.18;2.40;;;;;;;14.89;66.71;100904.75;5091670;28;20024;-80
2023/07/03 01:14:18;;;;;;;6.65;2.40;;;;;;;14.88;67.15;100903.03;5092114;28;20031;-80
2023/07/03 01:16:46;;;;;;;5.18;2.10;;;;;;;14.90;67.54;100902.09;5092831;28;20028;-81
2023/07/03 01:19:18;;;;;;;8.55;2.60;;;;;;;14.88;67.71;100910.88;5091515;28;20102;-81
2023/07/03 01:21:49;;;;;;;9.85;2.83;;;;;;;14.82;67.59;100909.31;5096247;28;20024;-80
2023/07/03 01:24:29;;;;;;;8.82;2.88;;;;;;;14.78;68.21;100903.34;5096556;28;20016;-80
2023/07/03 01:26:55;;;;;;;9.43;3.22;;;;;;;14.74;68.19;100898.25;5084092;28;20025;-80
2023/07/03 01:29:22;;;;;;;9.55;2.75;;;;;;;14.76;68.59;100906.88;5075810;28;20043;-81
2023/07/03 01:31:48;;;;;;;7.75;2.72;;;;;;;14.77;68.09;100908.59;5076097;28;20031;-82
2023/07/03 01:34:14;;;;;;;11.18;3.00;;;;;;;14.75;69.52;100910.44;5075066;28;20361;-82
2023/07/03 01:36:40;;;;;;;7.20;2.30;;;;;;;14.74;69.32;100911.31;5075944;28;20039;-82
2023/07/03 01:39:07;;;;;;;5.53;2.37;;;;;;;14.70;69.13;100907.94;5075066;28;20384;-82
2023/07/03 01:41:34;;;;;;;6.05;2.40;;;;;;;14.70;68.24;100907.94;5076116;28;20623;-81
2023/07/03 01:44:00;;;;;;;8.60;2.63;;;;;;;14.63;68.65;100895.94;5076030;28;20545;-82
2023/07/03 01:46:25;;;;;;;3.80;2.00;;;;;;;14.66;68.84;100901.91;5074945;28;20029;-82
2023/07/03 01:48:51;;;;;;;4.80;2.03;;;;;;;14.70;68.67;100907.09;5075160;28;20384;-82
2023/07/03 01:51:25;;;;;;;4.40;1.77;;;;;;;14.70;70.29;100894.88;5075364;28;20074;-82
2023/07/03 01:54:16;;;;;;;4.20;1.90;;;;;;;14.71;69.73;100903.59;5074800;28;20111;-82
2023/07/03 01:56:45;;;;;;;4.82;2.05;;;;;;;14.69;71.30;100892.31;5075861;28;20024;-81
2023/07/03 01:59:13;;;;;;;5.82;2.30;;;;;;;14.69;69.09;100902.78;5075605;28;20051;-82
2023/07/03 02:02:04;;;;;;;3.63;1.98;;;;;;;14.69;70.88;100895.81;5074906;28;20036;-82
2023/07/03 02:04:37;;;;;;;6.30;2.17;;;;;;;14.66;71.01;100896.69;5074813;28;20090;-82
2023/07/03 02:07:05;;;;;;;7.20;2.47;;;;;;;14.61;70.66;100892.53;5075202;28;20380;-81
2023/07/03 02:09:31;;;;;;;12.23;3.22;;;;;;;14.54;71.56;100883.19;5075423;28;20035;-82
2023/07/03 02:11:56;;;;;;;7.45;2.50;;;;;;;14.58;71.42;100896.09;5075599;28;20103;-82
2023/07/03 02:14:24;;;;;;;8.37;2.80;;;;;;;14.54;71.74;100891.84;5074159;28;20120;-82
2023/07/03 02:16:50;;;;;;;9.93;2.78;;;;;;;14.48;71.53;100892.91;5075287;28;20528;-82
2023/07/03 02:19:19;;;;;;;8.38;2.80;;;;;;;14.51;71.61;100891.97;5075205;28;20024;-82
2023/07/03 02:21:45;;;;;;;7.13;2.60;;;;;;;14.43;73.00;100886.97;5074419;28;20107;-81
2023/07/03 02:24:12;;;;;;;9.33;2.60;;;;;;;14.45;71.52;100897.38;5075123;28;20095;-82
2023/07/03 02:26:37;;;;;;;13.90;3.22;;;;;;;14.37;72.57;100889.75;5075296;28;20020;-82
2023/07/03 02:29:03;;;;;;;7.90;2.70;;;;;;;14.33;72.75;100890.78;5072926;28;20553;-82
2023/07/03 02:31:29;;;;;;;10.80;2.80;;;;;;;14.25;72.37;100879.69;5074531;28;20043;-82
2023/07/03 02:33:54;;;;;;;5.80;2.40;;;;;;;14.28;73.05;100877.88;5075123;28;20070;-82
2023/07/03 02:36:19;;;;;;;5.23;2.13;;;;;;;14.34;74.05;100890.72;5074216;28;20025;-82
2023/07/03 02:38:45;;;;;;;7.00;2.50;;;;;;;14.28;73.07;100879.59;5075234;28;20043;-82
2023/07/03 02:41:10;;;;;;;4.80;2.33;;;;;;;14.28;73.21;100893.53;5074586;28;20074;-82
2023/07/03 02:43:36;;;;;;;6.30;2.33;;;;;;;14.21;75.18;100887.63;5074285;28;20418;-82
2023/07/03 02:46:06;;;;;;;9.10;2.90;;;;;;;14.15;74.27;100885.19;5074711;28;20048;-82
2023/07/03 02:48:31;;;;;;;5.85;2.28;;;;;;;14.09;73.03;100876.69;5074928;28;20025;-82
2023/07/03 02:50:57;;;;;;;7.30;2.50;;;;;;;14.05;73.48;100875.94;5073989;28;20027;-82
2023/07/03 02:53:25;;;;;;;6.87;2.40;;;;;;;14.05;75.53;100882.00;5074071;28;20364;-82
2023/07/03 02:55:53;;;;;;;6.25;2.40;;;;;;;14.01;73.95;100880.38;5074335;28;20028;-82
2023/07/03 02:58:19;;;;;;;6.68;2.40;;;;;;;13.92;76.84;100864.13;5073565;28;20469;-81
2023/07/03 03:00:44;;;;;;;6.23;2.40;;;;;;;13.93;76.95;100882.38;5074616;28;20073;-81
2023/07/03 03:03:09;;;;;;;5.50;2.23;;;;;;;13.88;75.95;100874.69;5074425;28;20020;-82
2023/07/03 03:05:35;;;;;;;4.20;2.07;;;;;;;13.81;75.25;100870.50;5073842;28;20472;-82
2023/07/03 03:08:00;;;;;;;4.00;2.00;;;;;;;13.83;76.75;100881.75;5073605;28;20484;-82
2023/07/03 03:10:25;;;;;;;8.47;2.47;;;;;;;13.80;78.11;100881.00;5073444;28;20028;-82
2023/07/03 03:12:51;;;;;;;5.17;2.20;;;;;;;13.79;77.60;100879.28;5073818;28;20027;-81
2023/07/03 03:15:18;;;;;;;6.23;2.20;;;;;;;13.70;76.87;100862.13;5073975;28;20094;-82
2023/07/03 03:17:44;;;;;;;9.10;2.40;;;;;;;13.70;78.23;100869.97;5073080;28;20035;-82
2023/07/03 03:20:11;;;;;;;5.53;2.20;;;;;;;13.65;77.98;100864.88;5073804;28;20025;-81
2023/07/03 03:22:36;;;;;;;8.95;2.60;;;;;;;13.65;78.80;100861.44;5074117;28;20020;-82
2023/07/03 03:25:02;;;;;;;7.87;2.60;;;;;;;13.68;78.84;100869.16;5073286;28;20020;-81
2023/07/03 03:27:27;;;;;;;11.33;2.70;;;;;;;13.66;80.49;100866.59;5073513;28;20025;-82
2023/07/03 03:29:53;;;;;;;10.07;2.87;;;;;;;13.66;79.93;100869.19;5073856;28;20041;-82
2023/07/03 03:32:18;;;;;;;5.90;2.53;;;;;;;13.70;78.83;100868.22;5072638;28;20055;-82
2023/07/03 03:34:43;;;;;;;4.03;2.00;;;;;;;13.71;78.94;100866.44;5073697;28;20136;-82
2023/07/03 03:37:09;;;;;;;7.03;2.40;;;;;;;13.72;80.74;100879.47;5073089;28;20016;-81
2023/07/03 03:39:34;;;;;;;6.70;2.10;;;;;;;13.72;79.02;100874.25;5072804;28;20086;-81
2023/07/03 03:42:00;;;;;;;9.53;2.73;;;;;;;13.71;81.38;100871.66;5073386;28;20376;-81
2023/07/03 03:44:25;;;;;;;10.87;3.13;;;;;;;13.67;80.39;100873.50;5072821;28;20115;-82
2023/07/03 03:46:53;;;;;;;10.97;3.53;;;;;;;13.61;81.18;100868.47;5072871;28;20476;-82
2023/07/03 03:49:22;;;;;;;7.30;2.42;;;;;;;13.62;80.30;100879.75;5073569;28;20028;-81
2023/07/03 03:51:47;;;;;;;8.63;2.85;;;;;;;13.60;82.40;100877.19;5073583;28;20100;-80
2023/07/03 03:54:12;;;;;;;6.23;2.47;;;;;;;13.56;82.65;100873.81;5072379;28;20119;-81
2023/07/03 03:56:38;;;;;;;7.17;2.73;;;;;;;13.53;81.56;100863.47;5073423;28;20025;-80
2023/07/03 03:59:03;;;;;;;9.33;2.63;;;;;;;13.50;81.83;100860.94;5073528;28;20029;-81
2023/07/03 04:01:34;;;;;;;8.40;2.97;;;;;;;13.55;81.49;100877.34;5072104;28;20468;-82
2023/07/03 04:03:59;;;;;;;8.15;2.83;;;;;;;13.55;81.62;100882.53;5062518;28;20448;-82
2023/07/03 04:06:26;;;;;;;9.87;3.00;;;;;;;13.53;82.21;100881.72;5073103;28;20079;-81
2023/07/03 04:08:51;;;;;;;13.18;3.30;;;;;;;13.50;82.58;100880.97;5072561;28;20031;-81
2023/07/03 04:11:17;;;;;;;6.33;2.67;;;;;;;13.50;83.02;100875.75;5072657;28;20025;-80
2023/07/03 04:13:43;;;;;;;7.53;2.60;;;;;;;13.52;81.81;100882.63;5072579;28;20028;-80
2023/07/03 04:16:08;;;;;;;8.53;2.60;;;;;;;13.51;83.24;100874.84;5072997;28;20024;-81
2023/07/03 04:18:34;;;;;;;8.40;2.60;;;;;;;13.58;82.09;100879.00;5073167;28;20028;-81
2023/07/03 04:21:02;;;;;;;2.70;2.10;;;;;;;13.66;84.32;100882.22;5072144;28;20308;-81
2023/07/03 04:23:29;;;;;;;6.22;2.50;;;;;;;13.69;84.47;100871.72;5072587;28;20036;-81
2023/07/03 04:25:54;;;;;;;;;;;;;;;13.75;84.37;100884.59;5073127;28;20024;-80
2023/07/03 04:28:21;;;;;;;11.17;3.73;;;;;;;13.80;83.99;100878.38;5073486;28;20334;-81
2023/07/03 04:30:47;;;;;;;9.88;3.08;;;;;;;13.85;83.71;100869.53;5080985;28;20495;-81
2023/07/03 04:33:13;;;;;;;11.27;3.27;;;;;;;13.86;83.97;100867.78;5072569;28;20032;-81
2023/07/03 04:35:38;;;;;;;8.23;2.80;;;;;;;13.80;82.89;100874.00;5071879;28;20029;-82
2023/07/03 04:38:04;;;;;;;9.27;3.03;;;;;;;13.88;84.74;100885.13;5072460;28;20108;-81
2023/07/03 04:40:30;;;;;;;8.37;3.10;;;;;;;13.88;84.12;100890.31;5071599;28;20468;-81
2023/07/03 04:42:55;;;;;;;7.65;2.80;;;;;;;13.88;82.80;100882.50;5070737;28;20464;-82
2023/07/03 04:45:24;;;;;;;12.00;3.07;;;;;;;13.89;84.85;100885.94;5071760;28;20043;-82
2023/07/03 04:47:53;;;;;;;8.45;2.50;;;;;;;13.94;84.20;100891.91;5071744;28;20128;-81
2023/07/03 04:50:20;;;;;;;7.85;2.83;;;;;;;13.98;83.16;100900.50;5070934;28;20106;-81
2023/07/03 04:52:47;;;;;;;11.63;3.05;;;;;;;13.94;84.84;100894.50;5072402;28;20028;-81
2023/07/03 04:55:13;;;;;;;7.82;2.78;;;;;;;14.00;83.86;100899.53;5072230;28;20017;-81
2023/07/03 04:57:40;;;;;;;5.80;2.70;;;;;;;14.00;83.53;100904.75;5072033;28;20032;-82
2023/07/03 05:00:15;;;;;;;5.13;2.40;;;;;;;14.07;83.89;100904.59;5072513;28;20024;-81
2023/07/03 05:02:45;;;;;;;9.95;3.20;;;;;;;14.08;84.00;100903.69;5072949;28;20059;-82
2023/07/03 05:05:11;;;;;;;8.85;2.92;;;;;;;14.09;83.88;100905.38;5073049;28;20017;-81
2023/07/03 05:07:40;;;;;;;5.38;2.45;;;;;;;14.10;83.46;100897.53;5088484;28;20498;-81
2023/07/03 05:10:07;;;;;;;4.15;2.08;;;;;;;14.16;83.10;100914.78;5071570;28;20385;-82
2023/07/03 05:12:33;;;;;;;9.90;2.90;;;;;;;14.10;84.03;100899.28;5072270;28;20071;-82
2023/07/03 05:14:58;;;;;;;8.73;2.60;;;;;;;14.07;83.48;100900.22;5072469;28;20033;-82
2023/07/03 05:17:24;;;;;;;3.87;2.10;;;;;;;14.14;83.17;100904.34;5071209;28;20116;-82
2023/07/03 05:19:49;;;;;;;7.13;2.43;;;;;;;14.29;82.55;100923.09;5072141;28;20029;-83
2023/07/03 05:22:15;;;;;;;4.07;2.10;;;;;;;14.31;82.90;100903.84;5071807;28;20125;-82
2023/07/03 05:24:40;;;;;;;2.60;1.90;;;;;;;14.45;82.82;100915.66;5071546;28;20282;-82
2023/07/03 05:27:15;;;;;;;7.97;2.77;;;;;;;14.48;84.19;100920.78;5072161;28;20032;-82
2023/07/03 05:29:40;;;;;;;6.13;2.30;;;;;;;14.56;83.53;100921.41;5075660;28;20044;-82
2023/07/03 05:32:06;;;;;;;9.83;3.10;;;;;;;14.65;83.63;100921.09;5070406;28;20077;-81
2023/07/03 05:34:33;;;;;;;7.67;2.90;;;;;;;14.82;83.89;100928.44;5072229;28;20373;-82
2023/07/03 05:36:59;;;;;;;13.68;3.65;;;;;;;14.95;83.09;100918.47;5072382;28;20024;-81
2023/07/03 05:39:27;;;;;;;12.40;3.50;;;;;;;15.18;82.56;100929.06;5071293;28;20021;-81
2023/07/03 05:41:52;;;;;;;13.52;3.80;;;;;;;15.28;82.13;100930.47;5072034;28;20529;-80
2023/07/03 05:44:18;;;;;;;13.40;3.63;;;;;;;15.28;80.31;100923.50;5071866;28;20029;-81
2023/07/03 05:46:43;;;;;;;7.67;3.00;;;;;;;15.26;81.35;100940.97;5083319;28;20028;-81
2023/07/03 05:49:10;;;;;;;10.33;3.23;;;;;;;15.24;80.50;100936.72;5091464;28;20021;-80
2023/07/03 05:51:35;;;;;;;8.30;2.80;;;;;;;15.22;81.11;100934.13;5092287;28;20073;-81
2023/07/03 05:54:00;;;;;;;5.73;2.67;;;;;;;15.16;80.08;100931.75;5091494;28;20028;-81
2023/07/03 05:56:26;;;;;;;7.43;2.67;;;;;;;15.13;80.93;100934.44;5091964;28;20047;-81
2023/07/03 05:58:52;;;;;;;5.80;2.72;;;;;;;15.08;80.74;100939.00;5092134;28;20556;-81
2023/07/03 06:01:17;;;;;;;5.23;2.30;;;;;;;15.12;81.94;100937.97;5089368;28;20036;-80
2023/07/03 06:03:44;;;;;;;4.70;2.30;;;;;;;15.10;80.51;100934.53;5092097;28;20024;-81
2023/07/03 06:06:09;;;;;;;10.13;2.83;;;;;;;15.13;81.54;100937.06;5092742;28;20047;-80
2023/07/03 06:08:35;;;;;;;9.37;2.97;;;;;;;15.17;80.80;100946.53;5095383;28;20016;-81
2023/07/03 06:11:00;;;;;;;8.83;3.10;;;;;;;15.13;80.76;100935.31;5095937;28;20028;-81
2023/07/03 06:13:25;;;;;;;7.87;2.70;;;;;;;15.17;81.23;100943.03;5092874;28;20046;-80
2023/07/03 06:15:54;;;;;;;8.50;2.80;;;;;;;15.18;80.93;100947.38;5095237;28;20016;-80
2023/07/03 06:18:28;;;;;;;5.60;2.40;;;;;;;15.18;80.99;100940.41;5095380;28;20031;-81
2023/07/03 06:20:54;;;;;;;7.88;2.60;;;;;;;15.21;80.77;100948.13;5095067;28;20047;-81
2023/07/03 06:23:19;;;;;;;6.43;2.40;;;;;;;15.20;80.23;100940.34;5095406;28;20073;-81
2023/07/03 06:25:45;;;;;;;4.77;2.40;;;;;;;15.21;81.72;100945.50;5095587;28;20027;-81
2023/07/03 06:28:10;;;;;;;7.10;2.50;;;;;;;15.21;80.89;100945.50;5094397;28;20024;-81
2023/07/03 06:30:35;;;;;;;5.43;2.37;;;;;;;15.23;81.04;100942.84;5095459;28;20030;-81
2023/07/03 06:33:00;;;;;;;4.07;2.30;;;;;;;15.32;80.50;100950.38;5095449;28;20036;-81
2023/07/03 06:35:26;;;;;;;5.97;2.37;;;;;;;15.33;81.27;100938.16;5094619;28;20022;-80
2023/07/03 06:37:53;;;;;;;6.23;2.40;;;;;;;15.41;80.04;100951.84;5095374;28;20032;-81
2023/07/03 06:40:19;;;;;;;;;;;;;;;15.49;80.86;100951.56;5095538;28;20532;-81
2023/07/03 06:42:45;;;;;;;8.63;2.92;;;;;;;15.52;80.56;100934.03;5078017;28;20364;-81
2023/07/03 06:45:13;;;;;;;9.02;2.85;;;;;;;15.64;80.15;100944.97;5074143;28;20021;-81
2023/07/03 06:47:38;;;;;;;5.47;2.35;;;;;;;15.71;80.28;100941.22;5074702;28;20400;-81
2023/07/03 06:50:04;;;;;;;6.07;2.70;;;;;;;15.77;79.08;100941.00;5074105;28;20028;-80
2023/07/03 06:52:35;;;;;;;7.80;2.42;;;;;;;15.84;79.54;100936.41;5073818;28;20025;-80
2023/07/03 06:55:04;;;;;;;5.00;2.30;;;;;;;15.87;79.21;100934.56;5074590;28;20104;-81
2023/07/03 06:57:29;;;;;;;9.90;2.90;;;;;;;15.84;78.20;100918.97;5073489;28;20037;-80
2023/07/03 06:59:54;;;;;;;6.53;2.70;;;;;;;15.99;78.40;100942.88;5074498;28;20031;-80
2023/07/03 07:02:20;;;;;;;7.87;2.60;;;;;;;16.06;78.53;100939.13;5074335;28;20028;-80
2023/07/03 07:04:45;;;;;;;5.43;2.63;;;;;;;16.14;78.41;100944.94;5074083;28;20047;-80
2023/07/03 07:07:10;;;;;;;3.77;2.03;;;;;;;16.19;77.33;100939.53;5074408;28;20372;-81
2023/07/03 07:09:36;;;;;;;5.10;2.20;;;;;;;16.29;77.33;100950.50;5081465;28;20486;-81
2023/07/03 07:12:01;;;;;;;5.23;2.23;;;;;;;16.30;77.51;100958.31;5094096;28;20040;-81
2023/07/03 07:14:26;;;;;;;8.90;2.97;;;;;;;16.30;76.30;100960.09;5094305;28;20035;-81
2023/07/03 07:16:51;;;;;;;6.20;2.60;;;;;;;16.27;76.11;100961.03;5093502;28;20030;-81
2023/07/03 07:19:19;;;;;;;4.27;2.20;;;;;;;16.33;76.27;100963.44;5094474;28;20035;-81
2023/07/03 07:21:45;;;;;;;9.65;2.72;;;;;;;16.34;75.70;100961.66;5090597;28;20033;-80
2023/07/03 07:24:17;;;;;;;9.30;3.00;;;;;;;16.40;75.55;100973.66;5073246;28;20041;-82
2023/07/03 07:26:43;;;;;;;6.97;2.60;;;;;;;16.46;75.96;100962.97;5074258;28;20013;-81
2023/07/03 07:29:08;;;;;;;11.67;3.20;;;;;;;16.48;73.45;100959.38;5073597;28;20048;-80
2023/07/03 07:31:36;;;;;;;10.10;3.10;;;;;;;16.51;74.97;100954.03;5073464;28;20020;-80
2023/07/03 07:34:03;;;;;;;8.70;3.00;;;;;;;16.65;74.38;100956.09;5074264;28;20040;-79
2023/07/03 07:36:28;;;;;;;8.35;3.05;;;;;;;16.96;73.74;100959.31;5073965;28;20112;-80
2023/07/03 07:39:01;;;;;;;6.37;2.80;;;;;;;17.25;74.20;100959.88;5073321;28;20087;-80
2023/07/03 07:41:27;;;;;;;5.13;2.22;;;;;;;17.73;72.89;100963.13;5073700;28;20013;-81
2023/07/03 07:43:54;;;;;;;12.70;3.20;;;;;;;18.06;70.78;100967.84;5073766;28;20050;-83
2023/07/03 07:46:21;;;;;;;8.80;3.10;;;;;;;18.27;71.24;100967.78;5072329;28;20021;-82
2023/07/03 07:48:47;;;;;;;12.15;3.58;;;;;;;18.61;68.10;100969.69;5073426;28;20086;-80
2023/07/03 07:51:16;;;;;;;8.27;2.97;;;;;;;18.81;66.72;100971.38;5072518;28;20039;-80
2023/07/03 07:53:41;;;;;;;9.18;2.72;;;;;;;18.84;66.24;100962.50;5072471;28;20021;-81
2023/07/03 07:56:08;;;;;;;8.50;2.87;;;;;;;18.82;64.99;100970.47;5073298;28;20127;-81
2023/07/03 07:58:34;;;;;;;6.68;2.40;;;;;;;18.81;66.59;100970.50;5073212;28;20095;-81
2023/07/03 08:00:59;;;;;;;5.77;2.60;;;;;;;18.82;65.37;100980.09;5072866;28;20131;-82
2023/07/03 08:03:26;;;;;;;10.53;3.00;;;;;;;18.69;62.44;100979.84;5073319;28;20367;-80
2023/07/03 08:06:02;;;;;;;7.60;2.65;;;;;;;18.62;65.69;100981.91;5073022;28;20078;-81
2023/07/03 08:08:30;;;;;;;7.85;2.58;;;;;;;18.58;64.64;100984.75;5072882;28;20020;-81
2023/07/03 08:10:57;;;;;;;7.55;2.63;;;;;;;18.54;66.07;100989.31;5073245;28;20040;-81
2023/07/03 08:13:24;;;;;;;7.05;2.60;;;;;;;18.51;63.54;100981.56;5072356;28;20028;-83
2023/07/03 08:15:51;;;;;;;7.50;2.50;;;;;;;18.45;63.85;100980.06;5073294;28;20082;-82
2023/07/03 08:18:18;;;;;;;4.00;2.53;;;;;;;18.35;62.10;100989.31;5072152;28;20131;-83
2023/07/03 08:20:44;;;;;;;6.38;2.30;;;;;;;18.33;65.06;100997.25;5072416;28;20017;-82
2023/07/03 08:23:10;;;;;;;4.55;2.38;;;;;;;18.52;64.05;100992.00;5073030;28;20032;-83
2023/07/03 08:25:35;;;;;;;5.70;2.20;;;;;;;18.86;63.83;100991.34;5073314;28;20021;-80
2023/07/03 08:28:00;;;;;;;8.27;2.80;;;;;;;18.88;62.69;100994.75;5072351;28;20024;-83
2023/07/03 08:30:26;;;;;;;9.00;2.43;;;;;;;18.81;63.27;100992.41;5072126;28;20070;-82
2023/07/03 08:32:51;;;;;;;4.60;2.20;;;;;;;18.79;64.05;100999.53;5072412;28;20032;-82
2023/07/03 08:35:17;;;;;;;7.33;2.30;;;;;;;18.79;62.86;101003.94;5071264;28;20100;-83
2023/07/03 08:37:43;;;;;;;8.87;2.60;;;;;;;18.65;61.41;101005.44;5072838;28;20031;-82
2023/07/03 08:40:10;;;;;;;8.93;2.90;;;;;;;18.60;62.32;100999.53;5072614;28;20104;-82
2023/07/03 08:42:46;;;;;;;6.20;2.28;;;;;;;18.52;62.37;101010.38;5072341;28;20389;-81
2023/07/03 08:45:14;;;;;;;9.23;2.80;;;;;;;18.45;61.64;101013.41;5071538;28;20104;-82
2023/07/03 08:47:41;;;;;;;8.82;2.50;;;;;;;18.31;61.84;101014.00;5072908;28;20021;-82
2023/07/03 08:50:09;;;;;;;6.82;2.60;;;;;;;18.27;61.98;101009.81;5071603;28;20440;-84
2023/07/03 08:52:57;;;;;;;4.82;2.30;;;;;;;18.36;63.41;101012.88;5072654;28;20031;-81
2023/07/03 08:55:39;;;;;;;5.50;2.20;;;;;;;18.41;62.94;101012.66;5071867;28;20059;-81
2023/07/03 08:58:04;;;;;;;4.90;2.08;;;;;;;18.50;62.80;101009.63;5072701;28;20029;-83
2023/07/03 09:00:41;;;;;;;9.53;2.70;;;;;;;18.68;61.39;101013.19;5071808;28;20437;-80
2023/07/03 09:03:28;;;;;;;5.40;2.40;;;;;;;19.03;63.21;101009.81;5069965;28;20036;-81
2023/07/03 09:06:11;;;;;;;3.70;2.08;;;;;;;19.20;62.20;101014.28;5072651;28;20063;-81
2023/07/03 09:09:00;;;;;;;5.88;2.33;;;;;;;19.18;60.15;101008.22;5072525;28;20441;-81
2023/07/03 09:11:28;;;;;;;3.92;1.95;;;;;;;19.13;62.59;101018.97;5071315;28;20028;-81
2023/07/03 09:13:58;;;;;;;2.92;1.90;;;;;;;19.04;62.96;101016.78;5072668;28;20094;-81
2023/07/03 09:16:24;;;;;;;3.35;1.73;;;;;;;18.97;61.89;101012.75;5071403;28;20052;-81
2023/07/03 09:19:17;;;;;;;1.93;1.63;;;;;;;18.82;62.20;101015.16;5072443;28;20048;-81
2023/07/03 09:21:44;;;;;;;1.70;1.60;;;;;;;18.75;62.75;101018.16;5072509;28;20021;-81
2023/07/03 09:24:17;;;;;;;;;;;;;;;18.79;62.06;101014.47;5071454;28;20483;-81
2023/07/03 09:26:53;;;;;;;1.83;1.58;;;;;;;18.78;61.75;101012.75;5072317;28;19958;-81
2023/07/03 09:29:18;;;;;;;1.65;1.50;;;;;;;18.81;60.73;101007.31;5080758;28;20090;-81
2023/07/03 09:31:44;;;;;;;3.13;1.90;;;;;;;18.91;59.62;101010.38;5091692;28;20391;-81
2023/07/03 09:34:09;;;;;;;3.90;2.30;;;;;;;19.00;62.10;101007.34;5091973;28;20418;-81
2023/07/03 09:36:39;;;;;;;3.53;1.73;;;;;;;19.11;62.42;101004.19;5091878;28;20032;-81
2023/07/03 09:39:10;;;;;;;5.05;2.05;;;;;;;19.11;60.80;101005.03;5091784;28;20020;-82
2023/07/03 09:41:36;;;;;;;3.75;2.20;;;;;;;19.01;60.98;101014.31;5094189;28;20074;-81
2023/07/03 09:44:12;;;;;;;3.97;2.28;;;;;;;18.83;60.75;101014.25;5096492;28;20434;-81
2023/07/03 09:46:41;;;;;;;3.97;1.98;;;;;;;18.89;62.39;101007.84;5095572;28;20028;-81
2023/07/03 09:49:33;;;;;;;5.28;2.50;;;;;;;19.00;60.82;101007.34;5095770;28;20047;-81
2023/07/03 09:52:00;;;;;;;7.53;3.00;;;;;;;19.11;59.64;101010.28;5090677;28;20048;-81
2023/07/03 09:54:27;;;;;;;8.60;2.97;;;;;;;19.25;58.79;101011.41;5095976;28;20036;-81
2023/07/03 09:56:53;;;;;;;6.72;2.90;;;;;;;19.32;59.36;101014.59;5084445;28;20016;-81
2023/07/03 09:59:19;;;;;;;6.38;2.70;;;;;;;19.36;60.14;101006.47;5074650;28;20546;-82
2023/07/03 10:01:46;;;;;;;5.97;2.83;;;;;;;19.49;57.72;101008.50;5075789;28;20078;-81
2023/07/03 10:04:14;;;;;;;5.25;2.75;;;;;;;19.63;59.32;101015.69;5075481;28;20344;-81
2023/07/03 10:06:50;;;;;;;3.83;2.40;;;;;;;19.91;60.04;101009.88;5074848;28;20013;-82
2023/07/03 10:09:25;;;;;;;5.90;2.47;;;;;;;20.13;55.81;101014.03;5075586;28;20036;-81
2023/07/03 10:11:55;;;;;;;7.65;2.85;;;;;;;20.09;56.02;101009.88;5075892;28;20025;-81
2023/07/03 10:14:30;;;;;;;7.95;3.00;;;;;;;19.97;56.24;101019.25;5074483;28;20032;-81
2023/07/03 10:16:57;;;;;;;4.80;2.50;;;;;;;19.86;57.00;101010.13;5075437;28;20408;-81
2023/07/03 10:19:23;;;;;;;4.05;2.45;;;;;;;19.84;56.99;101006.69;5074837;28;20505;-81
2023/07/03 10:21:51;;;;;;;3.05;2.20;;;;;;;19.86;58.06;101023.28;5074865;28;20495;-81
2023/07/03 10:24:20;;;;;;;4.60;2.40;;;;;;;19.83;57.89;101025.19;5077880;28;20388;-81
2023/07/03 10:26:50;;;;;;;2.78;2.20;;;;;;;19.76;56.55;101027.28;5094805;28;20031;-81
2023/07/03 10:29:26;;;;;;;2.95;2.20;;;;;;;19.68;57.27;101030.31;5095305;28;20044;-81
2023/07/03 10:31:56;;;;;;;3.53;2.10;;;;;;;19.63;56.78;101028.84;5095482;28;20028;-81
2023/07/03 10:34:31;;;;;;;4.72;2.00;;;;;;;19.56;56.74;101018.63;5094207;28;20027;-81
2023/07/03 10:37:05;;;;;;;3.08;2.00;;;;;;;19.54;56.30;101022.25;5095348;28;20035;-81
2023/07/03 10:39:41;;;;;;;3.17;1.83;;;;;;;19.61;56.70;101021.03;5094967;28;20464;-81
2023/07/03 10:42:17;;;;;;;1.75;1.60;;;;;;;20.01;57.24;101026.06;5094096;28;20069;-81
2023/07/03 10:44:42;;;;;;;;;;;;;;;20.27;57.59;101021.19;5095828;28;20533;-81
2023/07/03 10:47:21;;;;;;;2.60;1.67;;;;;;;20.36;56.83;101020.72;5095127;28;20007;-81
2023/07/03 10:49:47;;;;;;;4.30;1.92;;;;;;;20.36;54.08;101018.91;5094849;28;20028;-81
2023/07/03 10:52:38;;;;;;;5.43;2.30;;;;;;;20.32;51.99;101032.34;5091360;28;20381;-81
2023/07/03 10:55:10;;;;;;;8.23;2.75;;;;;;;20.03;51.85;101026.84;5060206;28;20041;-81
2023/07/03 10:57:55;;;;;;;6.90;2.50;;;;;;;19.90;50.22;101029.25;5081801;28;20476;-81
2023/07/03 11:00:34;;;;;;;6.93;2.40;;;;;;;19.84;49.50;101040.91;5095051;28;20463;-81
2023/07/03 11:03:32;;;;;;;7.60;2.40;;;;;;;19.95;48.76;101023.72;5094168;28;20361;-81
2023/07/03 11:06:28;;;;;;;6.88;2.30;;;;;;;20.26;48.76;101024.78;5081013;28;20032;-81
2023/07/03 11:09:39;;;;;;;6.05;2.20;;;;;;;20.41;48.33;101023.94;5093983;28;20043;-82
2023/07/03 11:12:16;;;;;;;3.78;1.80;;;;;;;20.61;48.53;101022.88;5049724;28;20029;-80
2023/07/03 11:15:15;;;;;;;4.28;2.00;;;;;;;20.82;48.66;101025.28;5094708;28;20038;-80
2023/07/03 11:17:52;;;;;;;4.22;1.80;;;;;;;20.96;48.94;101016.56;5093722;28;20099;-81
2023/07/03 11:20:21;;;;;;;2.10;1.88;;;;;;;21.00;48.51;101019.91;5088022;28;20040;-83
2023/07/03 11:23:00;;;;;;;2.70;1.73;;;;;;;21.13;50.27;101021.78;5073118;28;20060;-82
2023/07/03 11:25:39;;;;;;;2.50;1.60;;;;;;;21.28;49.17;101014.75;5074107;28;20504;-80
2023/07/03 11:28:07;;;;;;;3.08;1.80;;;;;;;21.28;47.39;101019.16;5074017;28;20025;-80
2023/07/03 11:30:35;;;;;;;2.92;1.83;;;;;;;21.12;48.50;101022.69;5092956;28;20040;-80
2023/07/03 11:33:05;;;;;;;4.82;2.13;;;;;;;20.96;44.75;101030.63;5093989;28;20028;-81